createdAt,value
2019-03-23T00:00:38.162Z,44.74
2019-03-23T00:03:10.981Z,44.73
2019-03-23T00:05:43.381Z,44.78
2019-03-23T00:08:15.846Z,44.88
2019-03-23T00:10:48.331Z,44.96
2019-03-23T00:13:20.915Z,45.01
2019-03-23T00:15:53.347Z,45.01
2019-03-23T00:18:25.783Z,44.93
2019-03-23T00:20:58.265Z,44.92
2019-03-23T00:23:30.848Z,45.02
2019-03-23T00:26:03.307Z,45.14
2019-03-23T00:28:35.855Z,45.22
2019-03-23T00:31:08.385Z,45.31
2019-03-23T00:33:40.832Z,45.36
2019-03-23T00:36:13.264Z,45.40
2019-03-23T00:38:45.711Z,45.41
2019-03-23T00:41:18.791Z,45.39
2019-03-23T00:43:51.333Z,45.36
2019-03-23T00:46:23.723Z,45.34
2019-03-23T00:48:56.160Z,45.31
2019-03-23T00:51:28.579Z,45.37
2019-03-23T00:54:01.024Z,45.42
2019-03-23T00:56:33.427Z,45.46
2019-03-23T00:59:05.822Z,45.51
2019-03-23T01:01:38.252Z,45.58
2019-03-23T01:04:10.771Z,45.67
2019-03-23T01:06:51.745Z,45.71
2019-03-23T01:09:17.323Z,45.75
2019-03-23T01:11:49.723Z,45.80
2019-03-23T01:14:22.201Z,45.92
2019-03-23T01:16:54.553Z,46.01
2019-03-23T01:19:27.087Z,46.12
2019-03-23T01:21:59.412Z,46.27
2019-03-23T01:24:31.902Z,46.38
2019-03-23T01:27:04.259Z,46.47
2019-03-23T01:29:36.752Z,46.61
2019-03-23T01:32:09.134Z,46.70
2019-03-23T01:34:41.605Z,46.74
2019-03-23T01:37:14.120Z,46.78
2019-03-23T01:39:46.564Z,46.81
2019-03-23T01:42:19.216Z,46.85
2019-03-23T01:44:51.614Z,46.88
2019-03-23T01:47:24.001Z,46.95
2019-03-23T01:49:56.618Z,47.05
2019-03-23T01:52:28.999Z,47.09
2019-03-23T01:55:01.400Z,47.13
2019-03-23T01:57:33.795Z,47.12
2019-03-23T02:00:07.064Z,47.14
2019-03-23T02:02:39.525Z,47.19
2019-03-23T02:05:12.440Z,47.18
2019-03-23T02:07:44.961Z,47.16
2019-03-23T02:10:17.389Z,47.20
2019-03-23T02:12:49.801Z,47.23
2019-03-23T02:15:22.203Z,47.26
2019-03-23T02:17:54.700Z,47.29
2019-03-23T02:20:27.145Z,47.32
2019-03-23T02:22:59.799Z,47.35
2019-03-23T02:25:32.430Z,47.36
2019-03-23T02:28:04.859Z,47.30
2019-03-23T02:30:37.674Z,47.28
2019-03-23T02:33:10.045Z,47.25
2019-03-23T02:35:42.511Z,47.31
2019-03-23T02:38:15.217Z,47.30
2019-03-23T02:40:47.928Z,47.34
2019-03-23T02:43:20.583Z,47.27
2019-03-23T02:45:52.975Z,47.29
2019-03-23T02:48:25.328Z,47.26
2019-03-23T02:50:57.789Z,47.26
2019-03-23T02:53:31.009Z,47.35
2019-03-23T02:56:03.381Z,47.37
2019-03-23T02:58:35.836Z,47.41
2019-03-23T03:01:08.678Z,47.43
2019-03-23T03:03:41.083Z,47.48
2019-03-23T03:06:13.685Z,47.50
2019-03-23T03:08:46.336Z,47.50
2019-03-23T03:11:18.752Z,47.51
2019-03-23T03:13:51.146Z,47.53
2019-03-23T03:16:23.639Z,47.52
2019-03-23T03:18:56.058Z,47.55
2019-03-23T03:21:28.425Z,47.60
2019-03-23T03:24:01.294Z,47.63
2019-03-23T03:26:33.713Z,47.68
2019-03-23T03:29:06.138Z,47.70
2019-03-23T03:31:38.508Z,47.74
2019-03-23T03:34:10.918Z,47.74
2019-03-23T03:36:43.371Z,47.78
2019-03-23T03:39:16.001Z,47.83
2019-03-23T03:41:48.641Z,47.88
2019-03-23T03:44:21.114Z,47.91
2019-03-23T03:46:53.647Z,47.94
2019-03-23T03:49:26.123Z,47.97
2019-03-23T03:51:58.499Z,47.93
2019-03-23T03:54:31.398Z,47.96
2019-03-23T03:57:03.834Z,47.99
2019-03-23T03:59:36.242Z,48.01
2019-03-23T04:02:08.632Z,48.02
2019-03-23T04:04:41.092Z,48.07
2019-03-23T04:07:13.677Z,48.07
2019-03-23T04:09:46.484Z,48.11
2019-03-23T04:12:18.824Z,48.18
2019-03-23T04:14:51.235Z,48.27
2019-03-23T04:17:23.776Z,48.32
2019-03-23T04:19:56.169Z,48.39
2019-03-23T04:22:28.678Z,48.46
2019-03-23T04:25:01.418Z,48.50
2019-03-23T04:27:33.975Z,48.56
2019-03-23T04:30:06.885Z,48.57
2019-03-23T04:32:39.309Z,48.66
2019-03-23T04:35:11.667Z,48.65
2019-03-23T04:37:44.011Z,48.66
2019-03-23T04:40:16.755Z,48.63
2019-03-23T04:42:49.571Z,48.63
2019-03-23T04:45:21.975Z,48.63
2019-03-23T04:47:54.356Z,48.66
2019-03-23T04:50:26.789Z,48.70
2019-03-23T04:52:59.243Z,48.76
2019-03-23T04:55:32.141Z,48.80
2019-03-23T04:58:04.564Z,48.84
2019-03-23T05:00:37.092Z,48.87
2019-03-23T05:03:09.510Z,48.87
2019-03-23T05:05:42.061Z,48.87
2019-03-23T05:08:14.467Z,48.87
2019-03-23T05:10:47.677Z,48.87
2019-03-23T05:13:20.113Z,48.89
2019-03-23T05:15:52.991Z,48.88
2019-03-23T05:18:25.342Z,48.88
2019-03-23T05:20:57.719Z,48.91
2019-03-23T05:23:30.083Z,48.94
2019-03-23T05:26:02.945Z,48.99
2019-03-23T05:28:35.373Z,49.02
2019-03-23T05:31:07.853Z,49.05
2019-03-23T05:33:40.296Z,49.07
2019-03-23T05:36:12.668Z,49.10
2019-03-23T05:38:45.100Z,49.13
2019-03-23T05:41:17.469Z,49.23
2019-03-23T05:43:50.527Z,49.32
2019-03-23T05:46:23.015Z,49.38
2019-03-23T05:48:55.469Z,49.37
2019-03-23T05:51:27.906Z,49.44
2019-03-23T05:54:00.312Z,49.42
2019-03-23T05:56:32.665Z,49.42
2019-03-23T05:59:05.973Z,49.42
2019-03-23T06:01:38.355Z,49.42
2019-03-23T06:04:10.757Z,49.42
2019-03-23T06:06:43.298Z,49.41
2019-03-23T06:09:15.689Z,49.41
2019-03-23T06:11:48.118Z,49.42
2019-03-23T06:14:21.041Z,49.44
2019-03-23T06:16:53.770Z,49.54
2019-03-23T06:19:26.264Z,49.67
2019-03-23T06:21:58.720Z,49.80
2019-03-23T06:24:31.243Z,49.95
2019-03-23T06:27:03.929Z,50.07
2019-03-23T06:29:36.980Z,50.17
2019-03-23T06:32:09.521Z,50.29
2019-03-23T06:34:41.961Z,50.36
2019-03-23T06:37:14.404Z,50.47
2019-03-23T06:39:47.661Z,50.50
2019-03-23T06:42:20.263Z,50.50
2019-03-23T06:44:53.255Z,50.50
2019-03-23T06:47:25.984Z,50.47
2019-03-23T06:49:58.656Z,50.47
2019-03-23T06:52:31.086Z,50.38
2019-03-23T06:55:03.578Z,50.33
2019-03-23T06:57:36.027Z,50.26
2019-03-23T07:00:10.241Z,50.21
2019-03-23T07:02:42.748Z,50.16
2019-03-23T07:05:15.956Z,50.17
2019-03-23T07:07:48.314Z,50.17
2019-03-23T07:10:20.816Z,50.13
2019-03-23T07:12:53.305Z,50.10
2019-03-23T07:15:26.374Z,50.09
2019-03-23T07:17:58.922Z,50.05
2019-03-23T07:20:31.339Z,50.01
2019-03-23T07:23:03.800Z,50.02
2019-03-23T07:25:36.210Z,50.03
2019-03-23T07:28:08.697Z,50.04
2019-03-23T07:30:41.172Z,50.03
2019-03-23T07:33:14.120Z,50.06
2019-03-23T07:35:46.492Z,50.05
2019-03-23T07:38:18.942Z,50.01
2019-03-23T07:40:51.372Z,50.00
2019-03-23T07:43:24.481Z,50.00
2019-03-23T07:45:56.978Z,50.00
2019-03-23T07:48:29.940Z,49.97
2019-03-23T07:51:02.361Z,50.00
2019-03-23T07:53:34.821Z,50.01
2019-03-23T07:56:07.349Z,50.02
2019-03-23T07:58:39.853Z,50.04
2019-03-23T08:01:12.316Z,50.02
2019-03-23T08:03:45.359Z,50.00
2019-03-23T08:06:18.094Z,50.03
2019-03-23T08:08:50.575Z,49.98
2019-03-23T08:11:23.232Z,49.93
2019-03-23T08:13:55.742Z,49.89
2019-03-23T08:16:28.166Z,49.79
2019-03-23T08:19:01.391Z,49.72
2019-03-23T08:21:33.882Z,49.62
2019-03-23T08:24:06.371Z,49.54
2019-03-23T08:26:38.828Z,49.42
2019-03-23T08:29:11.467Z,49.26
2019-03-23T08:31:43.902Z,49.12
2019-03-23T08:34:16.588Z,49.03
2019-03-23T08:36:49.034Z,48.87
2019-03-23T08:39:21.584Z,48.70
2019-03-23T08:41:54.277Z,48.58
2019-03-23T08:44:26.745Z,48.58
2019-03-23T08:46:59.221Z,48.43
2019-03-23T08:49:32.322Z,48.36
2019-03-23T08:52:05.290Z,48.12
2019-03-23T08:54:37.876Z,48.13
2019-03-23T08:57:10.301Z,48.10
2019-03-23T08:59:42.728Z,48.01
2019-03-23T09:02:15.219Z,47.92
2019-03-23T09:04:48.100Z,47.87
2019-03-23T09:07:20.488Z,47.76
2019-03-23T09:09:59.082Z,47.71
2019-03-23T09:12:27.310Z,47.59
2019-03-23T09:14:59.822Z,47.50
2019-03-23T09:17:32.286Z,47.41
2019-03-23T09:20:05.903Z,47.33
2019-03-23T09:22:38.775Z,47.25
2019-03-23T09:25:11.317Z,47.16
2019-03-23T09:27:43.766Z,47.10
2019-03-23T09:30:16.780Z,46.98
2019-03-23T09:32:49.269Z,46.83
2019-03-23T09:35:21.686Z,46.75
2019-03-23T09:37:54.449Z,46.68
2019-03-23T09:40:26.853Z,46.57
2019-03-23T09:42:59.463Z,46.41
2019-03-23T09:45:31.901Z,46.21
2019-03-23T09:48:04.418Z,46.00
2019-03-23T09:50:36.855Z,45.95
2019-03-23T09:53:09.806Z,45.94
2019-03-23T09:55:42.335Z,45.86
2019-03-23T09:58:14.757Z,45.84
2019-03-23T10:00:47.230Z,45.50
2019-03-23T10:03:19.872Z,45.40
2019-03-23T10:05:52.387Z,45.34
2019-03-23T10:08:25.649Z,45.25
2019-03-23T10:10:58.198Z,45.22
2019-03-23T10:13:30.648Z,44.99
2019-03-23T10:16:03.096Z,44.94
2019-03-23T10:18:35.656Z,44.82
2019-03-23T10:21:08.198Z,44.74
2019-03-23T10:23:41.096Z,44.60
2019-03-23T10:26:13.529Z,44.47
2019-03-23T10:28:46.445Z,44.27
2019-03-23T10:31:18.944Z,44.12
2019-03-23T10:33:51.388Z,44.11
2019-03-23T10:36:23.886Z,44.01
2019-03-23T10:38:56.803Z,43.90
2019-03-23T10:41:29.409Z,43.80
2019-03-23T10:44:02.197Z,43.75
2019-03-23T10:46:34.656Z,43.64
2019-03-23T10:49:07.073Z,43.48
2019-03-23T10:51:39.524Z,43.41
2019-03-23T10:54:12.271Z,43.32
2019-03-23T10:56:44.758Z,43.11
2019-03-23T10:59:17.215Z,43.03
2019-03-23T11:01:49.868Z,42.92
2019-03-23T11:04:22.598Z,42.86
2019-03-23T11:06:55.163Z,42.80
2019-03-23T11:09:27.953Z,42.78
2019-03-23T11:12:00.407Z,42.66
2019-03-23T11:14:32.936Z,42.56
2019-03-23T11:17:05.406Z,42.41
2019-03-23T11:19:37.884Z,42.28
2019-03-23T11:22:10.387Z,42.22
2019-03-23T11:24:43.382Z,42.10
2019-03-23T11:27:16.418Z,42.00
2019-03-23T11:29:48.964Z,41.80
2019-03-23T11:32:21.528Z,41.74
2019-03-23T11:34:54.126Z,41.61
2019-03-23T11:37:26.606Z,41.57
2019-03-23T11:39:59.479Z,41.48
2019-03-23T11:42:32.144Z,41.36
2019-03-23T11:45:04.748Z,41.21
2019-03-23T11:47:37.257Z,41.00
2019-03-23T11:50:10.024Z,40.91
2019-03-23T11:52:42.462Z,40.65
2019-03-23T11:55:15.334Z,40.39
2019-03-23T11:57:48.150Z,40.10
2019-03-23T12:00:20.636Z,40.09
2019-03-23T12:02:53.149Z,39.75
2019-03-23T12:05:25.645Z,39.58
2019-03-23T12:07:58.150Z,39.61
2019-03-23T12:10:30.644Z,39.62
2019-03-23T12:13:03.613Z,39.57
2019-03-23T12:15:36.132Z,39.48
2019-03-23T12:18:08.712Z,39.39
2019-03-23T12:20:41.228Z,39.24
2019-03-23T12:23:13.920Z,39.22
2019-03-23T12:25:46.422Z,38.86
2019-03-23T12:28:19.357Z,38.75
2019-03-23T12:30:52.175Z,38.71
2019-03-23T12:33:24.738Z,38.67
2019-03-23T12:35:57.778Z,38.64
2019-03-23T12:38:30.471Z,38.64
2019-03-23T12:41:11.480Z,38.39
2019-03-23T12:43:42.094Z,38.26
2019-03-23T12:46:14.635Z,37.85
2019-03-23T12:48:47.618Z,38.12
2019-03-23T12:51:20.074Z,38.00
2019-03-23T12:53:52.588Z,37.94
2019-03-23T12:56:25.010Z,37.94
2019-03-23T12:58:58.202Z,37.90
2019-03-23T13:01:32.074Z,38.04
2019-03-23T13:04:04.545Z,37.73
2019-03-23T13:06:37.022Z,37.72
2019-03-23T13:09:10.200Z,37.72
2019-03-23T13:11:42.562Z,37.77
2019-03-23T13:14:14.986Z,37.82
2019-03-23T13:16:47.850Z,37.71
2019-03-23T13:19:20.342Z,37.58
2019-03-23T13:21:53.003Z,37.51
2019-03-23T13:24:25.507Z,37.54
2019-03-23T13:26:57.926Z,37.52
2019-03-23T13:29:30.552Z,37.42
2019-03-23T13:32:03.660Z,37.26
2019-03-23T13:34:36.208Z,37.19
2019-03-23T13:37:08.733Z,37.15
2019-03-23T13:39:42.298Z,37.06
2019-03-23T13:42:15.243Z,36.75
2019-03-23T13:44:47.792Z,36.79
2019-03-23T13:47:20.504Z,36.80
2019-03-23T13:49:53.171Z,36.81
2019-03-23T13:52:25.661Z,36.59
2019-03-23T13:54:58.966Z,36.63
2019-03-23T13:57:31.876Z,36.50
2019-03-23T14:00:04.828Z,36.44
2019-03-23T14:02:37.771Z,36.49
2019-03-23T14:05:16.148Z,36.49
2019-03-23T14:07:44.885Z,36.34
2019-03-23T14:10:17.393Z,36.39
2019-03-23T14:12:49.937Z,36.26
2019-03-23T14:15:22.391Z,36.15
2019-03-23T14:17:54.967Z,36.02
2019-03-23T14:20:27.473Z,36.13
2019-03-23T14:23:02.925Z,36.11
2019-03-23T14:25:34.887Z,36.16
2019-03-23T14:28:08.286Z,36.14
2019-03-23T14:30:40.718Z,36.09
2019-03-23T14:33:13.237Z,36.14
2019-03-23T14:35:45.741Z,36.21
2019-03-23T14:38:18.758Z,36.12
2019-03-23T14:40:51.233Z,35.94
2019-03-23T14:43:23.842Z,35.99
2019-03-23T14:45:56.384Z,36.04
2019-03-23T14:48:28.889Z,35.98
2019-03-23T14:51:01.342Z,35.99
2019-03-23T14:53:34.271Z,36.06
2019-03-23T14:56:06.806Z,36.07
2019-03-23T14:58:39.281Z,35.99
2019-03-23T15:01:11.765Z,36.11
2019-03-23T15:03:44.389Z,36.12
2019-03-23T15:06:16.812Z,36.04
2019-03-23T15:08:49.922Z,36.14
2019-03-23T15:11:22.442Z,36.21
2019-03-23T15:13:55.066Z,36.35
2019-03-23T15:16:27.545Z,36.45
2019-03-23T15:19:00.062Z,36.25
2019-03-23T15:21:32.576Z,36.20
2019-03-23T15:24:05.900Z,36.20
2019-03-23T15:26:38.557Z,36.29
2019-03-23T15:29:11.013Z,36.26
2019-03-23T15:31:43.523Z,36.30
2019-03-23T15:34:15.982Z,36.40
2019-03-23T15:36:48.533Z,36.46
2019-03-23T15:39:22.185Z,36.44
2019-03-23T15:41:55.493Z,36.38
2019-03-23T15:44:28.434Z,36.40
2019-03-23T15:47:00.906Z,36.34
2019-03-23T15:49:33.642Z,36.23
2019-03-23T15:52:06.251Z,36.18
2019-03-23T15:54:40.057Z,36.19
2019-03-23T15:57:12.493Z,36.10
2019-03-23T15:59:45.247Z,36.04
2019-03-23T16:02:17.868Z,36.02
2019-03-23T16:04:50.409Z,35.97
2019-03-23T16:07:29.549Z,35.79
2019-03-23T16:09:57.128Z,35.43
2019-03-23T16:12:34.732Z,35.19
2019-03-23T16:15:05.496Z,35.07
2019-03-23T16:17:38.157Z,35.07
2019-03-23T16:20:11.288Z,34.94
2019-03-23T16:22:43.706Z,34.97
2019-03-23T16:25:16.314Z,35.00
2019-03-23T16:27:49.434Z,35.05
2019-03-23T16:30:31.878Z,35.05
2019-03-23T16:33:04.297Z,35.06
2019-03-23T16:35:36.811Z,35.08
2019-03-23T16:38:09.365Z,35.02
2019-03-23T16:40:41.911Z,35.06
2019-03-23T16:43:15.168Z,35.09
2019-03-23T16:45:47.609Z,35.13
2019-03-23T16:48:20.247Z,35.20
2019-03-23T16:50:52.702Z,35.23
2019-03-23T16:53:25.190Z,35.23
2019-03-23T16:55:57.610Z,35.27
2019-03-23T16:58:30.590Z,35.32
2019-03-23T17:01:02.993Z,35.35
2019-03-23T17:03:35.774Z,35.39
2019-03-23T17:06:08.332Z,35.42
2019-03-23T17:08:40.994Z,35.48
2019-03-23T17:11:13.711Z,35.48
2019-03-23T17:13:46.811Z,35.51
2019-03-23T17:16:19.460Z,35.55
2019-03-23T17:18:51.983Z,35.58
2019-03-23T17:21:24.459Z,35.68
2019-03-23T17:23:57.119Z,35.72
2019-03-23T17:26:29.735Z,35.79
2019-03-23T17:29:02.744Z,35.81
2019-03-23T17:31:35.203Z,35.82
2019-03-23T17:34:07.740Z,35.91
2019-03-23T17:36:40.261Z,35.94
2019-03-23T17:39:13.284Z,35.99
2019-03-23T17:41:45.857Z,36.16
2019-03-23T17:44:19.390Z,36.73
2019-03-23T17:46:52.949Z,37.11
2019-03-23T17:49:25.468Z,37.67
2019-03-23T17:51:58.086Z,38.00
2019-03-23T17:54:30.641Z,38.18
2019-03-23T17:57:03.223Z,38.41
2019-03-23T17:59:38.111Z,38.63
2019-03-23T18:02:10.703Z,38.76
2019-03-23T18:04:44.322Z,38.92
2019-03-23T18:07:16.921Z,39.22
2019-03-23T18:09:49.748Z,39.30
2019-03-23T18:12:22.419Z,39.40
2019-03-23T18:14:55.162Z,39.54
2019-03-23T18:17:27.849Z,39.82
2019-03-23T18:20:00.432Z,39.89
2019-03-23T18:22:33.061Z,40.09
2019-03-23T18:25:05.542Z,40.23
2019-03-23T18:27:38.331Z,40.35
2019-03-23T18:30:36.274Z,40.57
2019-03-23T18:33:09.026Z,40.73
2019-03-23T18:35:41.720Z,40.91
2019-03-23T18:38:14.307Z,41.10
2019-03-23T18:40:46.863Z,41.14
2019-03-23T18:43:27.401Z,41.20
2019-03-23T18:45:54.303Z,41.23
2019-03-23T18:48:26.794Z,41.37
2019-03-23T18:50:59.331Z,41.43
2019-03-23T18:53:31.833Z,41.46
2019-03-23T18:56:04.638Z,41.53
2019-03-23T18:58:37.215Z,41.54
2019-03-23T19:01:10.737Z,41.59
2019-03-23T19:03:43.603Z,41.64
2019-03-23T19:06:16.124Z,41.85
2019-03-23T19:08:48.752Z,41.82
2019-03-23T19:11:21.375Z,41.87
2019-03-23T19:13:54.177Z,41.95
2019-03-23T19:16:26.682Z,42.08
2019-03-23T19:18:59.776Z,42.09
2019-03-23T19:21:32.409Z,42.17
2019-03-23T19:24:05.245Z,42.27
2019-03-23T19:26:38.056Z,42.31
2019-03-23T19:29:10.610Z,42.41
2019-03-23T19:31:43.081Z,42.46
2019-03-23T19:34:16.502Z,42.56
2019-03-23T19:36:49.055Z,42.60
2019-03-23T19:39:21.555Z,42.69
2019-03-23T19:41:54.178Z,42.75
2019-03-23T19:44:27.122Z,42.81
2019-03-23T19:46:59.584Z,42.87
2019-03-23T19:49:32.430Z,42.99
2019-03-23T19:52:04.939Z,43.17
2019-03-23T19:54:37.627Z,43.24
2019-03-23T19:57:10.260Z,43.35
2019-03-23T19:59:42.851Z,43.37
2019-03-23T20:02:15.369Z,43.43
2019-03-23T20:04:48.375Z,43.54
2019-03-23T20:07:20.895Z,43.54
2019-03-23T20:09:53.492Z,43.65
2019-03-23T20:12:26.073Z,43.73
2019-03-23T20:14:58.612Z,43.77
2019-03-23T20:17:31.197Z,43.81
2019-03-23T20:20:04.623Z,43.86
2019-03-23T20:22:37.137Z,43.93
2019-03-23T20:25:09.790Z,43.94
2019-03-23T20:27:42.455Z,44.03
2019-03-23T20:30:15.556Z,44.13
2019-03-23T20:32:48.044Z,44.15
2019-03-23T20:35:20.989Z,44.18
2019-03-23T20:37:53.574Z,44.17
2019-03-23T20:40:26.052Z,44.18
2019-03-23T20:42:58.891Z,44.19
2019-03-23T20:45:32.611Z,44.24
2019-03-23T20:48:05.264Z,44.26
2019-03-23T20:50:38.515Z,44.34
2019-03-23T20:53:13.874Z,44.36
2019-03-23T20:55:46.123Z,44.42
2019-03-23T20:58:18.610Z,44.40
2019-03-23T21:00:51.083Z,44.44
2019-03-23T21:03:23.530Z,44.43
2019-03-23T21:05:56.945Z,44.48
2019-03-23T21:08:29.485Z,44.50
2019-03-23T21:11:02.065Z,44.53
2019-03-23T21:13:34.586Z,44.55
2019-03-23T21:16:07.243Z,44.55
2019-03-23T21:18:40.066Z,44.63
2019-03-23T21:21:12.586Z,44.67
2019-03-23T21:23:45.477Z,44.78
2019-03-23T21:26:18.051Z,44.80
2019-03-23T21:28:50.500Z,44.87
2019-03-23T21:31:23.101Z,44.95
2019-03-23T21:33:55.651Z,45.04
2019-03-23T21:36:28.175Z,45.07
2019-03-23T21:39:01.013Z,45.08
2019-03-23T21:41:33.442Z,45.10
2019-03-23T21:44:06.357Z,45.10
2019-03-23T21:46:38.933Z,45.13
2019-03-23T21:49:11.700Z,45.18
2019-03-23T21:51:44.285Z,45.21
2019-03-23T21:54:17.114Z,45.29
2019-03-23T21:56:49.706Z,45.39
2019-03-23T21:59:22.275Z,45.46
2019-03-23T22:01:54.798Z,45.53
2019-03-23T22:04:27.247Z,45.71
2019-03-23T22:07:00.019Z,45.82
2019-03-23T22:09:32.918Z,45.91
2019-03-23T22:12:05.420Z,46.02
2019-03-23T22:14:41.925Z,46.07
2019-03-23T22:17:12.163Z,46.13
2019-03-23T22:19:44.670Z,46.17
2019-03-23T22:22:17.307Z,46.22
2019-03-23T22:24:50.121Z,46.28
2019-03-23T22:27:22.578Z,46.31
2019-03-23T22:29:55.106Z,46.48
2019-03-23T22:32:27.615Z,46.52
2019-03-23T22:35:00.178Z,46.70
2019-03-23T22:37:33.030Z,46.83
2019-03-23T22:40:06.570Z,46.92
2019-03-23T22:42:39.040Z,47.00
2019-03-23T22:45:10.034Z,47.09
2019-03-23T22:47:39.344Z,47.18
2019-03-23T22:50:17.544Z,47.30
2019-03-23T22:52:50.046Z,47.47
2019-03-23T22:55:22.896Z,47.52
2019-03-23T22:57:55.709Z,47.57
2019-03-23T23:00:42.971Z,47.62
2019-03-23T23:03:15.953Z,47.63
2019-03-23T23:05:48.704Z,47.65
2019-03-23T23:08:21.470Z,47.68
2019-03-23T23:10:54.278Z,47.81
2019-03-23T23:13:26.863Z,47.80
2019-03-23T23:15:59.390Z,47.93
2019-03-23T23:18:31.818Z,47.98
2019-03-23T23:21:04.590Z,48.02
2019-03-23T23:23:37.036Z,48.06
2019-03-23T23:26:09.842Z,48.11
2019-03-23T23:28:43.217Z,48.15
2019-03-23T23:31:15.689Z,48.14
2019-03-23T23:33:48.153Z,48.17
2019-03-23T23:36:20.633Z,48.20
2019-03-23T23:38:53.251Z,48.29
2019-03-23T23:41:26.071Z,48.35
2019-03-23T23:43:58.720Z,48.46
2019-03-23T23:46:31.211Z,48.59
2019-03-23T23:49:03.652Z,48.73
2019-03-23T23:51:36.104Z,48.87
2019-03-23T23:54:08.523Z,48.99
2019-03-23T23:56:41.695Z,49.05
2019-03-23T23:59:14.375Z,49.10
